Time;durP1;ratioP1;P1;durP2;ratioP2;P2;SDS_P1;SDS_P2;PMS_P1;PMS_P2;Temp;Humidity;BMP_temperature;BMP_pressure;BME280_temperature;BME280_humidity;BME280_pressure;Samples;Min_cycle;Max_cycle;Signal;HPM_P1;HPM_P2
2021/12/22 00:01:29;;;;;;;86.45;28.05;;;;;;;;;;4952193;28;20441;-67
2021/12/22 00:03:55;;;;;;;100.03;31.17;;;;;;;;;;4950819;28;20129;-67
2021/12/22 00:06:24;;;;;;;87.57;29.08;;;;;;;;;;4950885;28;20449;-67
2021/12/22 00:08:50;;;;;;;96.88;29.52;;;;;;;;;;4951886;28;20058;-67
2021/12/22 00:11:16;;;;;;;86.38;26.88;;;;;;;;;;4950315;28;20021;-69
2021/12/22 00:13:43;;;;;;;85.63;27.50;;;;;;;;;;4950023;28;20357;-69
2021/12/22 00:16:08;;;;;;;86.75;27.77;;;;;;;;;;4951937;28;20376;-67
2021/12/22 00:18:34;;;;;;;102.63;30.38;;;;;;;;;;4953132;28;20374;-67
2021/12/22 00:20:59;;;;;;;81.82;26.88;;;;;;;;;;4951933;28;20436;-66
2021/12/22 00:23:25;;;;;;;76.72;26.45;;;;;;;;;;4951785;28;20026;-67
2021/12/22 00:25:50;;;;;;;80.50;25.35;;;;;;;;;;4951723;28;20061;-67
2021/12/22 00:28:16;;;;;;;85.15;28.25;;;;;;;;;;4951308;28;20495;-66
2021/12/22 00:30:41;;;;;;;75.18;25.70;;;;;;;;;;4952082;28;20563;-72
2021/12/22 00:33:10;;;;;;;79.72;26.23;;;;;;;;;;4950104;28;20437;-68
2021/12/22 00:35:40;;;;;;;72.53;26.30;;;;;;;;;;4952489;28;20361;-67
2021/12/22 00:38:07;;;;;;;79.90;26.65;;;;;;;;;;4952216;28;20069;-67
2021/12/22 00:40:33;;;;;;;78.60;25.20;;;;;;;;;;4950685;28;20459;-67
2021/12/22 00:42:58;;;;;;;70.60;23.88;;;;;;;;;;4951842;28;20429;-66
2021/12/22 00:45:25;;;;;;;66.13;25.25;;;;;;;;;;4951221;28;20489;-67
2021/12/22 00:47:50;;;;;;;59.35;23.25;;;;;;;;;;4951105;28;20033;-67
2021/12/22 00:50:17;;;;;;;64.80;23.42;;;;;;;;;;4950854;28;20539;-68
2021/12/22 00:52:42;;;;;;;79.13;24.75;;;;;;;;;;4949702;28;20473;-68
2021/12/22 00:55:08;;;;;;;70.30;24.67;;;;;;;;;;4949946;28;20474;-66
2021/12/22 00:57:34;;;;;;;60.55;22.20;;;;;;;;;;4950417;28;20337;-67
2021/12/22 01:00:00;;;;;;;77.03;24.73;;;;;;;;;;4951526;28;20310;-69
2021/12/22 01:02:25;;;;;;;73.05;24.40;;;;;;;;;;4962094;28;20349;-67
2021/12/22 01:04:50;;;;;;;75.07;24.08;;;;;;;;;;4951041;28;20034;-67
2021/12/22 01:07:16;;;;;;;73.88;24.67;;;;;;;;;;4948933;28;20408;-66
2021/12/22 01:09:42;;;;;;;73.30;24.70;;;;;;;;;;4951536;28;20030;-67
2021/12/22 01:12:08;;;;;;;72.45;23.90;;;;;;;;;;4949286;28;20053;-67
2021/12/22 01:14:34;;;;;;;66.40;23.15;;;;;;;;;;4949227;28;20353;-67
2021/12/22 01:17:02;;;;;;;59.22;21.48;;;;;;;;;;4950625;28;20459;-67
2021/12/22 01:19:38;;;;;;;68.15;24.20;;;;;;;;;;4950759;28;20510;-68
2021/12/22 01:25:03;;;;;;;71.45;23.50;;;;;;;;;;4922445;28;20084;-68
2021/12/22 01:27:34;;;;;;;62.35;22.33;;;;;;;;;;4949790;28;20326;-67
2021/12/22 01:30:05;;;;;;;58.38;21.50;;;;;;;;;;4952150;28;20421;-67
2021/12/22 01:32:30;;;;;;;62.97;21.80;;;;;;;;;;4950665;28;20034;-67
2021/12/22 01:34:55;;;;;;;63.13;23.35;;;;;;;;;;4950682;28;20060;-67
2021/12/22 01:37:21;;;;;;;67.93;23.58;;;;;;;;;;4950349;28;20527;-67
2021/12/22 01:39:46;;;;;;;58.05;20.45;;;;;;;;;;4949438;28;20113;-67
2021/12/22 01:42:11;;;;;;;55.80;21.45;;;;;;;;;;4951482;28;20377;-67
2021/12/22 01:45:12;;;;;;;71.85;24.52;;;;;;;;;;4964747;28;20345;-66
2021/12/22 01:50:30;;;;;;;70.05;23.48;;;;;;;;;;4951451;28;20491;-67
2021/12/22 01:52:55;;;;;;;66.22;21.75;;;;;;;;;;4950163;28;20360;-67
2021/12/22 01:55:34;;;;;;;64.07;21.98;;;;;;;;;;4948700;28;20084;-67
2021/12/22 01:58:00;;;;;;;61.15;21.05;;;;;;;;;;4949002;28;20484;-67
2021/12/22 02:00:27;;;;;;;61.28;23.08;;;;;;;;;;4948296;28;20109;-67
2021/12/22 02:02:52;;;;;;;65.90;22.90;;;;;;;;;;4950669;28;20080;-68
2021/12/22 02:05:18;;;;;;;70.82;22.35;;;;;;;;;;4948647;28;20022;-67
2021/12/22 02:07:43;;;;;;;53.97;21.27;;;;;;;;;;4948818;28;20045;-67
2021/12/22 02:10:30;;;;;;;54.40;20.23;;;;;;;;;;4950730;28;20417;-67
2021/12/22 02:12:55;;;;;;;55.40;21.35;;;;;;;;;;4948286;28;20480;-67
2021/12/22 02:15:21;;;;;;;53.03;18.42;;;;;;;;;;4950056;28;20441;-67
2021/12/22 02:17:46;;;;;;;60.42;23.30;;;;;;;;;;4950702;28;20384;-67
2021/12/22 02:20:12;;;;;;;55.90;20.17;;;;;;;;;;4950668;28;20352;-67
2021/12/22 02:22:40;;;;;;;64.72;22.10;;;;;;;;;;4950030;28;20080;-67
2021/12/22 02:25:13;;;;;;;58.13;21.83;;;;;;;;;;4948437;28;20369;-67
2021/12/22 02:27:53;;;;;;;65.18;20.60;;;;;;;;;;4949352;28;20136;-66
2021/12/22 02:30:25;;;;;;;51.22;21.15;;;;;;;;;;4948804;28;20080;-67
2021/12/22 02:36:06;;;;;;;59.78;21.23;;;;;;;;;;4949922;28;20295;-67
2021/12/22 02:38:16;;;;;;;61.08;22.80;;;;;;;;;;4948435;28;20064;-67
2021/12/22 02:40:43;;;;;;;64.45;24.08;;;;;;;;;;4950233;28;20180;-67
2021/12/22 02:43:09;;;;;;;62.05;22.45;;;;;;;;;;4948072;28;20404;-67
2021/12/22 02:45:34;;;;;;;60.42;23.10;;;;;;;;;;4950153;28;20377;-67
2021/12/22 02:48:00;;;;;;;59.17;21.27;;;;;;;;;;4948305;28;20112;-67
2021/12/22 02:50:26;;;;;;;65.82;22.77;;;;;;;;;;4948425;28;20391;-68
2021/12/22 02:53:13;;;;;;;55.83;21.45;;;;;;;;;;4949673;28;20089;-66
2021/12/22 02:56:02;;;;;;;53.55;19.35;;;;;;;;;;4951216;28;20488;-67
2021/12/22 02:58:39;;;;;;;67.63;21.00;;;;;;;;;;4949462;28;20424;-67
2021/12/22 03:06:22;;;;;;;56.78;20.90;;;;;;;;;;4949401;28;20384;-67
2021/12/22 03:08:47;;;;;;;57.83;21.08;;;;;;;;;;4948623;28;20025;-67
2021/12/22 03:11:12;;;;;;;57.25;23.52;;;;;;;;;;4949522;28;20076;-67
2021/12/22 03:13:38;;;;;;;54.38;20.55;;;;;;;;;;4953508;28;20432;-67
2021/12/22 03:16:03;;;;;;;54.53;19.80;;;;;;;;;;4951924;28;20069;-66
2021/12/22 03:18:28;;;;;;;51.33;18.98;;;;;;;;;;4953277;28;20465;-67
2021/12/22 03:21:02;;;;;;;60.97;20.63;;;;;;;;;;4954701;28;20432;-67
2021/12/22 03:23:29;;;;;;;55.00;20.75;;;;;;;;;;4953611;28;20321;-67
2021/12/22 03:25:55;;;;;;;50.80;20.00;;;;;;;;;;4952734;28;20421;-67
2021/12/22 03:28:20;;;;;;;60.65;22.23;;;;;;;;;;4952906;28;20352;-68
2021/12/22 03:30:45;;;;;;;60.38;21.42;;;;;;;;;;4967290;28;20477;-66
2021/12/22 03:33:10;;;;;;;59.70;22.15;;;;;;;;;;4967356;28;20048;-66
2021/12/22 03:35:38;;;;;;;57.35;21.63;;;;;;;;;;4953239;28;20520;-67
2021/12/22 03:38:03;;;;;;;51.00;21.55;;;;;;;;;;4951188;28;20437;-67
2021/12/22 03:40:29;;;;;;;56.38;21.42;;;;;;;;;;4952538;28;20425;-66
2021/12/22 03:42:54;;;;;;;51.03;19.55;;;;;;;;;;4952530;28;20517;-67
2021/12/22 03:45:20;;;;;;;58.63;21.52;;;;;;;;;;4952206;28;20408;-67
2021/12/22 03:47:46;;;;;;;55.40;20.67;;;;;;;;;;4952264;28;20022;-69
2021/12/22 03:50:12;;;;;;;59.63;21.85;;;;;;;;;;4951409;28;20061;-67
2021/12/22 03:52:37;;;;;;;57.88;19.52;;;;;;;;;;4951273;28;20445;-67
2021/12/22 03:55:05;;;;;;;56.00;21.30;;;;;;;;;;4953336;28;20337;-67
2021/12/22 03:57:30;;;;;;;57.15;21.02;;;;;;;;;;4953028;28;20342;-67
2021/12/22 03:59:58;;;;;;;62.53;20.52;;;;;;;;;;4953362;28;20416;-66
2021/12/22 04:02:24;;;;;;;55.95;20.65;;;;;;;;;;4953811;28;20108;-68
2021/12/22 04:04:50;;;;;;;55.22;19.92;;;;;;;;;;4952378;28;20038;-67
2021/12/22 04:07:16;;;;;;;49.70;19.67;;;;;;;;;;4951905;28;20488;-67
2021/12/22 04:09:42;;;;;;;53.45;20.15;;;;;;;;;;4950749;28;20417;-67
2021/12/22 04:12:08;;;;;;;49.65;19.20;;;;;;;;;;4951850;28;20459;-67
2021/12/22 04:14:33;;;;;;;54.85;20.77;;;;;;;;;;4953285;28;20311;-67
2021/12/22 04:16:59;;;;;;;55.28;19.10;;;;;;;;;;4951194;28;20109;-67
2021/12/22 04:19:24;;;;;;;47.03;18.05;;;;;;;;;;4952522;28;20340;-66
2021/12/22 04:21:50;;;;;;;51.28;19.02;;;;;;;;;;4950665;28;20109;-67
2021/12/22 04:24:17;;;;;;;54.95;22.23;;;;;;;;;;4949474;28;20445;-67
2021/12/22 04:26:42;;;;;;;55.42;20.60;;;;;;;;;;4950018;28;20534;-67
2021/12/22 04:29:10;;;;;;;59.50;21.25;;;;;;;;;;4951898;28;20420;-67
2021/12/22 04:31:35;;;;;;;52.92;19.42;;;;;;;;;;4966141;28;20417;-67
2021/12/22 04:34:03;;;;;;;51.90;20.63;;;;;;;;;;4952920;28;20329;-67
2021/12/22 04:36:28;;;;;;;56.83;18.40;;;;;;;;;;4951655;28;20393;-67
2021/12/22 04:38:56;;;;;;;42.38;17.50;;;;;;;;;;4952025;28;20137;-66
2021/12/22 04:41:21;;;;;;;45.70;18.08;;;;;;;;;;4951453;28;20537;-67
2021/12/22 04:43:46;;;;;;;44.00;18.35;;;;;;;;;;4951537;28;20037;-67
2021/12/22 04:46:12;;;;;;;38.90;17.88;;;;;;;;;;4950658;28;20476;-67
2021/12/22 04:48:37;;;;;;;45.45;17.90;;;;;;;;;;4949575;28;20471;-67
2021/12/22 04:51:12;;;;;;;47.85;19.00;;;;;;;;;;4951553;28;20566;-67
2021/12/22 04:53:47;;;;;;;46.60;17.52;;;;;;;;;;4951316;28;20540;-66
2021/12/22 04:56:13;;;;;;;45.67;17.52;;;;;;;;;;4951608;28;20539;-67
2021/12/22 04:58:38;;;;;;;41.50;17.77;;;;;;;;;;4951317;28;20429;-67
2021/12/22 05:01:03;;;;;;;45.65;16.00;;;;;;;;;;4951465;28;20491;-66
2021/12/22 05:03:28;;;;;;;43.13;17.42;;;;;;;;;;4951131;28;20404;-68
2021/12/22 05:05:54;;;;;;;45.10;16.85;;;;;;;;;;4951225;28;20433;-66
2021/12/22 05:08:19;;;;;;;42.20;17.15;;;;;;;;;;4950659;28;20396;-66
2021/12/22 05:10:44;;;;;;;32.47;14.35;;;;;;;;;;4949658;28;20365;-68
2021/12/22 05:13:10;;;;;;;41.92;16.80;;;;;;;;;;4951205;28;20334;-67
2021/12/22 05:15:38;;;;;;;41.17;14.73;;;;;;;;;;4950912;28;20417;-68
2021/12/22 05:18:20;;;;;;;40.05;15.45;;;;;;;;;;4950536;28;20381;-67
2021/12/22 05:20:45;;;;;;;37.55;15.25;;;;;;;;;;4949718;28;20359;-68
2021/12/22 05:23:11;;;;;;;38.58;15.93;;;;;;;;;;4950553;28;20026;-67
2021/12/22 05:25:36;;;;;;;39.03;15.32;;;;;;;;;;4950701;28;20052;-67
2021/12/22 05:28:02;;;;;;;38.60;13.82;;;;;;;;;;4951908;28;20349;-66
2021/12/22 05:30:27;;;;;;;34.42;14.52;;;;;;;;;;4950920;28;20384;-67
2021/12/22 05:32:54;;;;;;;35.70;14.23;;;;;;;;;;4951543;28;20026;-67
2021/12/22 05:35:21;;;;;;;38.15;14.75;;;;;;;;;;4965627;28;20487;-67
2021/12/22 05:37:46;;;;;;;42.17;14.23;;;;;;;;;;4948684;28;20018;-68
2021/12/22 05:40:12;;;;;;;34.30;14.48;;;;;;;;;;4950210;28;20421;-67
2021/12/22 05:42:37;;;;;;;36.33;16.20;;;;;;;;;;4950823;28;20342;-67
2021/12/22 05:45:03;;;;;;;34.08;15.02;;;;;;;;;;4948026;28;20424;-67
2021/12/22 05:47:28;;;;;;;34.42;16.05;;;;;;;;;;4948552;28;20030;-67
2021/12/22 05:49:54;;;;;;;43.83;14.07;;;;;;;;;;4950495;28;20404;-67
2021/12/22 05:52:19;;;;;;;37.50;15.00;;;;;;;;;;4951155;28;20038;-69
2021/12/22 05:54:45;;;;;;;33.58;13.77;;;;;;;;;;4950641;28;20341;-67
2021/12/22 05:57:11;;;;;;;43.30;15.90;;;;;;;;;;4948903;28;20425;-67
2021/12/22 05:59:36;;;;;;;39.28;14.20;;;;;;;;;;4948930;28;20425;-68
2021/12/22 06:02:02;;;;;;;36.05;14.05;;;;;;;;;;4950374;28;20052;-67
2021/12/22 06:04:27;;;;;;;36.03;14.13;;;;;;;;;;4949205;28;20104;-67
2021/12/22 06:06:53;;;;;;;31.83;12.55;;;;;;;;;;4950254;28;20448;-67
2021/12/22 06:09:18;;;;;;;32.95;11.90;;;;;;;;;;4964677;28;20318;-67
2021/12/22 06:11:43;;;;;;;34.83;14.18;;;;;;;;;;4949217;28;20440;-66
2021/12/22 06:14:09;;;;;;;32.85;13.20;;;;;;;;;;4948965;28;20488;-68
2021/12/22 06:16:34;;;;;;;32.20;13.57;;;;;;;;;;4949588;28;20469;-66
2021/12/22 06:19:04;;;;;;;31.50;12.75;;;;;;;;;;4950610;28;20482;-67
2021/12/22 06:21:30;;;;;;;31.38;14.27;;;;;;;;;;4948464;28;20026;-67
2021/12/22 06:23:55;;;;;;;32.95;13.70;;;;;;;;;;4949949;28;20477;-67
2021/12/22 06:26:21;;;;;;;33.47;13.90;;;;;;;;;;4950189;28;20386;-67
2021/12/22 06:28:46;;;;;;;28.67;12.77;;;;;;;;;;4950500;28;20441;-67
2021/12/22 06:31:11;;;;;;;35.05;14.00;;;;;;;;;;4949578;28;20306;-67
2021/12/22 06:33:37;;;;;;;31.08;13.05;;;;;;;;;;4949986;28;20429;-67
2021/12/22 06:36:02;;;;;;;36.42;14.88;;;;;;;;;;4948337;28;20402;-69
2021/12/22 06:38:28;;;;;;;34.83;13.27;;;;;;;;;;4949967;28;20381;-66
2021/12/22 06:40:53;;;;;;;36.67;14.25;;;;;;;;;;4949266;28;20337;-67
2021/12/22 06:43:18;;;;;;;34.63;14.98;;;;;;;;;;4948065;28;20560;-66
2021/12/22 06:45:44;;;;;;;40.00;15.77;;;;;;;;;;4948682;28;20061;-67
2021/12/22 06:48:09;;;;;;;31.38;13.05;;;;;;;;;;4953728;28;20056;-68
2021/12/22 06:50:35;;;;;;;31.58;12.90;;;;;;;;;;4951811;28;20053;-66
2021/12/22 06:53:00;;;;;;;34.55;14.13;;;;;;;;;;4953598;28;20337;-67
2021/12/22 06:55:25;;;;;;;30.55;12.32;;;;;;;;;;4953568;28;20423;-67
2021/12/22 06:57:51;;;;;;;29.25;11.65;;;;;;;;;;4953902;28;20356;-67
2021/12/22 07:00:17;;;;;;;27.20;12.80;;;;;;;;;;4953426;28;20048;-67
2021/12/22 07:02:42;;;;;;;26.02;12.05;;;;;;;;;;4967950;28;20441;-67
2021/12/22 07:05:10;;;;;;;37.05;14.20;;;;;;;;;;4953386;28;20042;-67
2021/12/22 07:07:36;;;;;;;32.58;13.75;;;;;;;;;;4952794;28;20029;-67
2021/12/22 07:10:07;;;;;;;38.25;12.90;;;;;;;;;;4952284;28;20053;-67
2021/12/22 07:12:40;;;;;;;33.50;13.70;;;;;;;;;;4952940;28;20334;-67
2021/12/22 07:15:10;;;;;;;30.67;12.43;;;;;;;;;;4954952;28;20429;-67
2021/12/22 07:17:36;;;;;;;;;;;;;;;;;;4952127;28;20519;-67
2021/12/22 07:20:01;;;;;;;33.78;12.57;;;;;;;;;;4952894;28;20296;-67
2021/12/22 07:22:26;;;;;;;34.95;13.48;;;;;;;;;;4953199;28;20368;-66
2021/12/22 07:24:52;;;;;;;33.08;13.15;;;;;;;;;;4953630;28;20451;-67
2021/12/22 07:27:17;;;;;;;32.42;13.52;;;;;;;;;;4954141;28;20116;-66
2021/12/22 07:29:42;;;;;;;27.40;13.20;;;;;;;;;;4951063;28;20442;-67
2021/12/22 07:32:08;;;;;;;31.85;12.45;;;;;;;;;;4953057;28;20575;-67
2021/12/22 07:34:48;;;;;;;32.30;12.43;;;;;;;;;;4951260;28;20449;-69
2021/12/22 07:37:22;;;;;;;;;;;;;;;;;;4951609;28;20429;-67
2021/12/22 07:39:48;;;;;;;33.42;13.43;;;;;;;;;;4952824;28;20431;-67
2021/12/22 07:42:13;;;;;;;27.25;11.18;;;;;;;;;;4954095;28;20437;-67
2021/12/22 07:44:39;;;;;;;36.40;13.98;;;;;;;;;;4951717;28;20620;-67
2021/12/22 07:47:04;;;;;;;30.63;12.20;;;;;;;;;;4952674;28;20397;-66
2021/12/22 07:49:29;;;;;;;30.75;12.63;;;;;;;;;;4951151;28;20516;-67
2021/12/22 07:51:55;;;;;;;33.33;13.27;;;;;;;;;;4951083;28;20388;-67
2021/12/22 07:54:20;;;;;;;31.45;13.18;;;;;;;;;;4953757;28;20057;-67
2021/12/22 07:56:46;;;;;;;33.25;12.52;;;;;;;;;;4950781;28;20034;-67
2021/12/22 07:59:11;;;;;;;31.05;12.40;;;;;;;;;;4951224;28;20368;-67
2021/12/22 08:01:36;;;;;;;30.52;12.93;;;;;;;;;;4952960;28;20393;-67
2021/12/22 08:04:02;;;;;;;27.05;11.63;;;;;;;;;;4952240;28;20021;-68
2021/12/22 08:06:27;;;;;;;24.95;11.40;;;;;;;;;;4951174;28;20484;-67
2021/12/22 08:08:53;;;;;;;25.58;11.60;;;;;;;;;;4951959;28;20365;-67
2021/12/22 08:11:18;;;;;;;29.90;12.48;;;;;;;;;;4952472;28;20056;-67
2021/12/22 08:13:43;;;;;;;33.63;12.90;;;;;;;;;;4952323;28;20456;-67
2021/12/22 08:16:09;;;;;;;34.58;12.57;;;;;;;;;;4951963;28;20385;-67
2021/12/22 08:18:34;;;;;;;29.33;11.35;;;;;;;;;;4950897;28;20346;-67
2021/12/22 08:21:00;;;;;;;32.33;12.20;;;;;;;;;;4951664;28;20471;-67
2021/12/22 08:23:25;;;;;;;23.65;11.13;;;;;;;;;;4950923;28;20382;-69
2021/12/22 08:25:50;;;;;;;31.83;11.70;;;;;;;;;;4951901;28;20503;-66
2021/12/22 08:28:16;;;;;;;26.63;12.18;;;;;;;;;;4952100;28;20445;-67
2021/12/22 08:30:42;;;;;;;28.52;11.70;;;;;;;;;;4950242;28;20333;-67
2021/12/22 08:33:15;;;;;;;26.70;12.15;;;;;;;;;;4952424;28;20420;-66
2021/12/22 08:38:50;;;;;;;26.00;10.60;;;;;;;;;;4931642;28;20357;-66
2021/12/22 08:41:19;;;;;;;25.13;10.18;;;;;;;;;;4952726;28;20045;-67
2021/12/22 08:43:44;;;;;;;43.53;14.68;;;;;;;;;;4952357;28;20437;-68
2021/12/22 08:46:10;;;;;;;28.30;12.57;;;;;;;;;;4950852;28;20479;-67
2021/12/22 08:48:35;;;;;;;25.48;9.25;;;;;;;;;;4952196;28;20425;-66
2021/12/22 08:51:00;;;;;;;28.70;11.30;;;;;;;;;;4951136;28;20418;-67
2021/12/22 08:53:26;;;;;;;40.03;14.95;;;;;;;;;;4951032;28;20034;-67
2021/12/22 08:55:51;;;;;;;30.95;11.80;;;;;;;;;;4950084;28;20437;-67
2021/12/22 08:58:16;;;;;;;32.75;13.13;;;;;;;;;;4951270;28;20397;-67
2021/12/22 09:00:43;;;;;;;26.10;12.27;;;;;;;;;;4951299;28;20328;-67
2021/12/22 09:03:08;;;;;;;33.28;11.82;;;;;;;;;;4951045;28;20105;-67
2021/12/22 09:05:34;;;;;;;26.38;12.70;;;;;;;;;;4950766;28;20137;-68
2021/12/22 09:07:59;;;;;;;26.88;12.88;;;;;;;;;;4950217;28;20361;-67
2021/12/22 09:10:25;;;;;;;36.97;13.30;;;;;;;;;;4950499;28;20465;-67
2021/12/22 09:12:50;;;;;;;31.42;11.18;;;;;;;;;;4950807;28;20449;-67
2021/12/22 09:15:17;;;;;;;22.73;11.20;;;;;;;;;;4951190;28;20445;-67
2021/12/22 09:17:43;;;;;;;22.85;11.25;;;;;;;;;;4951117;28;20360;-67
2021/12/22 09:20:09;;;;;;;25.73;11.77;;;;;;;;;;4951947;28;20336;-67
2021/12/22 09:22:34;;;;;;;22.73;10.50;;;;;;;;;;4951804;28;20018;-67
2021/12/22 09:24:59;;;;;;;25.13;10.45;;;;;;;;;;4949429;28;20433;-68
2021/12/22 09:27:24;;;;;;;25.95;11.90;;;;;;;;;;4950631;28;20344;-67
2021/12/22 09:29:50;;;;;;;27.38;9.93;;;;;;;;;;4949846;28;20452;-67
2021/12/22 09:32:17;;;;;;;25.30;10.55;;;;;;;;;;4950499;28;20022;-67
2021/12/22 09:34:44;;;;;;;24.45;10.88;;;;;;;;;;4950771;28;20049;-67
2021/12/22 09:37:09;;;;;;;24.95;10.27;;;;;;;;;;4950688;28;20048;-67
2021/12/22 09:39:34;;;;;;;29.20;9.73;;;;;;;;;;4950916;28;20034;-67
2021/12/22 09:42:00;;;;;;;21.92;10.35;;;;;;;;;;4949126;28;20045;-67
2021/12/22 09:44:31;;;;;;;25.45;9.52;;;;;;;;;;4949442;28;20408;-67
2021/12/22 09:46:56;;;;;;;26.15;10.35;;;;;;;;;;4949614;28;20441;-67
2021/12/22 09:49:59;;;;;;;23.00;9.38;;;;;;;;;;4949874;28;20610;-68
2021/12/22 09:52:19;;;;;;;27.83;10.45;;;;;;;;;;4948552;28;20483;-67
2021/12/22 09:54:52;;;;;;;20.15;8.20;;;;;;;;;;4950058;28;20441;-67
2021/12/22 09:57:19;;;;;;;27.00;10.30;;;;;;;;;;4951623;28;20054;-68
2021/12/22 09:59:48;;;;;;;22.75;10.13;;;;;;;;;;4948602;28;20356;-67
2021/12/22 10:02:14;;;;;;;;;;;;;;;;;;4949021;28;20429;-68
2021/12/22 10:04:39;;;;;;;17.90;8.80;;;;;;;;;;4951099;28;20320;-67
2021/12/22 10:07:08;;;;;;;19.35;8.82;;;;;;;;;;4949484;28;20413;-67
2021/12/22 10:09:41;;;;;;;19.52;7.95;;;;;;;;;;4948436;28;20504;-67
2021/12/22 10:12:13;;;;;;;18.58;8.40;;;;;;;;;;4947999;28;20192;-67
2021/12/22 10:14:47;;;;;;;19.98;9.88;;;;;;;;;;4949630;28;20388;-67
2021/12/22 10:17:26;;;;;;;19.58;9.07;;;;;;;;;;4950256;28;20433;-68
2021/12/22 10:19:53;;;;;;;18.05;7.97;;;;;;;;;;4950370;28;20528;-67
2021/12/22 10:22:18;;;;;;;16.20;6.95;;;;;;;;;;4950108;28;20448;-67
2021/12/22 10:24:46;;;;;;;15.35;7.60;;;;;;;;;;4949548;28;20367;-67
2021/12/22 10:27:19;;;;;;;22.73;9.02;;;;;;;;;;4948712;28;20433;-68
2021/12/22 10:29:44;;;;;;;24.27;8.75;;;;;;;;;;4949640;28;20034;-67
2021/12/22 10:32:14;;;;;;;16.70;7.97;;;;;;;;;;4951507;28;20449;-67
2021/12/22 10:34:54;;;;;;;16.45;7.72;;;;;;;;;;4948032;28;20637;-67
2021/12/22 10:37:31;;;;;;;17.50;7.25;;;;;;;;;;4950177;28;20330;-68
2021/12/22 10:39:57;;;;;;;18.10;7.97;;;;;;;;;;4948102;28;20460;-67
2021/12/22 10:42:22;;;;;;;17.50;7.93;;;;;;;;;;4951054;28;20539;-67
2021/12/22 10:44:49;;;;;;;18.30;7.65;;;;;;;;;;4947347;28;20471;-66
2021/12/22 10:47:22;;;;;;;13.93;7.07;;;;;;;;;;4949171;28;20449;-66
2021/12/22 10:50:02;;;;;;;14.75;6.90;;;;;;;;;;4948245;28;20141;-67
2021/12/22 10:52:27;;;;;;;18.23;7.05;;;;;;;;;;4949352;28;20017;-67
2021/12/22 10:55:07;;;;;;;13.63;7.53;;;;;;;;;;4949308;28;20433;-67
2021/12/22 10:57:40;;;;;;;21.42;7.75;;;;;;;;;;4949252;28;20507;-67
2021/12/22 11:00:16;;;;;;;20.63;7.00;;;;;;;;;;4947845;28;20100;-67
2021/12/22 11:02:49;;;;;;;13.48;7.15;;;;;;;;;;4950274;28;20425;-67
2021/12/22 11:05:23;;;;;;;14.88;6.60;;;;;;;;;;4950029;28;20404;-66
2021/12/22 11:07:48;;;;;;;15.70;6.78;;;;;;;;;;4947489;28;20345;-66
2021/12/22 11:10:27;;;;;;;17.48;7.85;;;;;;;;;;4949378;28;20337;-67
2021/12/22 11:13:01;;;;;;;17.38;6.38;;;;;;;;;;4949139;28;20314;-67
2021/12/22 11:15:26;;;;;;;17.63;6.55;;;;;;;;;;4949157;28;20369;-67
2021/12/22 11:17:52;;;;;;;14.60;7.00;;;;;;;;;;4947790;28;20440;-67
2021/12/22 11:20:22;;;;;;;15.40;6.28;;;;;;;;;;4949389;28;20384;-69
2021/12/22 11:23:00;;;;;;;14.27;6.90;;;;;;;;;;4948419;28;20365;-67
2021/12/22 11:25:27;;;;;;;13.95;6.18;;;;;;;;;;4949386;28;20426;-67
2021/12/22 11:27:53;;;;;;;14.02;5.97;;;;;;;;;;4931630;28;20373;-67
2021/12/22 11:30:20;;;;;;;15.30;6.30;;;;;;;;;;4950220;28;20479;-66
2021/12/22 11:32:46;;;;;;;13.00;6.10;;;;;;;;;;4952083;28;20061;-67
2021/12/22 11:35:12;;;;;;;14.68;5.65;;;;;;;;;;4952492;28;20045;-67
2021/12/22 11:37:38;;;;;;;17.58;6.63;;;;;;;;;;4952545;28;20379;-67
2021/12/22 11:40:08;;;;;;;9.90;5.38;;;;;;;;;;4950993;28;20315;-67
2021/12/22 11:42:37;;;;;;;17.75;6.18;;;;;;;;;;4952585;28;20369;-67
2021/12/22 11:45:19;;;;;;;13.48;6.10;;;;;;;;;;4951829;28;20373;-67
2021/12/22 11:47:47;;;;;;;12.88;6.15;;;;;;;;;;4953004;28;20455;-67
2021/12/22 11:50:25;;;;;;;15.50;6.03;;;;;;;;;;4952985;28;20329;-67
2021/12/22 11:53:06;;;;;;;14.45;7.10;;;;;;;;;;4936155;28;20455;-67
2021/12/22 11:55:42;;;;;;;13.50;5.75;;;;;;;;;;4952781;28;20461;-67
2021/12/22 11:58:19;;;;;;;15.00;6.00;;;;;;;;;;4951956;28;20342;-67
2021/12/22 12:00:45;;;;;;;9.68;5.55;;;;;;;;;;4952094;28;20468;-67
2021/12/22 12:03:33;;;;;;;10.18;5.55;;;;;;;;;;4951761;28;20352;-67
2021/12/22 12:06:13;;;;;;;10.50;4.85;;;;;;;;;;4952929;28;20026;-67
2021/12/22 12:08:48;;;;;;;10.07;5.22;;;;;;;;;;4950414;28;20488;-67
2021/12/22 12:12:16;;;;;;;13.23;6.28;;;;;;;;;;4952378;28;20026;-67
2021/12/22 12:14:38;;;;;;;14.05;6.35;;;;;;;;;;4945021;28;20410;-67
2021/12/22 12:23:27;;;;;;;12.93;5.55;;;;;;;;;;4952027;28;20057;-67
2021/12/22 12:25:54;;;;;;;13.43;6.88;;;;;;;;;;4950081;28;20037;-67
2021/12/22 12:28:21;;;;;;;13.38;6.00;;;;;;;;;;4951579;28;20334;-67
2021/12/22 12:30:50;;;;;;;17.27;6.40;;;;;;;;;;4951058;28;20468;-71
2021/12/22 12:33:22;;;;;;;14.23;6.47;;;;;;;;;;4950536;28;20029;-69
2021/12/22 12:35:50;;;;;;;16.15;6.45;;;;;;;;;;4950172;28;20357;-67
2021/12/22 12:38:22;;;;;;;12.93;5.90;;;;;;;;;;4949966;28;20428;-67
2021/12/22 12:41:11;;;;;;;14.90;6.20;;;;;;;;;;4951428;28;20380;-67
2021/12/22 12:46:34;;;;;;;16.05;7.10;;;;;;;;;;4950506;28;20412;-67
2021/12/22 12:49:02;;;;;;;10.40;5.20;;;;;;;;;;4951141;28;20533;-67
2021/12/22 12:51:47;;;;;;;17.30;6.20;;;;;;;;;;4951232;28;20440;-67
2021/12/22 12:54:15;;;;;;;14.60;5.75;;;;;;;;;;4952167;28;20527;-68
2021/12/22 12:57:02;;;;;;;12.88;5.97;;;;;;;;;;4950753;28;20377;-67
2021/12/22 12:59:37;;;;;;;15.68;5.93;;;;;;;;;;4938730;28;20444;-66
2021/12/22 13:02:02;;;;;;;10.38;5.25;;;;;;;;;;4950673;28;20030;-67
2021/12/22 13:04:29;;;;;;;12.52;5.43;;;;;;;;;;4949319;28;20030;-67
2021/12/22 13:07:00;;;;;;;14.68;5.82;;;;;;;;;;4952505;28;20357;-67
2021/12/22 13:09:37;;;;;;;13.98;6.20;;;;;;;;;;4950820;28;20056;-67
2021/12/22 13:12:14;;;;;;;13.57;6.28;;;;;;;;;;4950291;28;20087;-67
2021/12/22 13:17:34;;;;;;;17.52;6.57;;;;;;;;;;4951782;28;20522;-67
2021/12/22 13:20:00;;;;;;;13.32;5.88;;;;;;;;;;4950653;28;20088;-67
2021/12/22 13:22:29;;;;;;;17.40;6.10;;;;;;;;;;4950830;28;20461;-67
2021/12/22 13:25:25;;;;;;;13.82;6.00;;;;;;;;;;4933773;28;20460;-67
2021/12/22 13:28:06;;;;;;;16.67;6.22;;;;;;;;;;4937686;28;21077;-67
2021/12/22 13:30:34;;;;;;;12.68;5.50;;;;;;;;;;4949139;28;20413;-68
2021/12/22 13:33:03;;;;;;;12.83;6.10;;;;;;;;;;4949191;28;20499;-67
2021/12/22 13:35:47;;;;;;;9.00;4.78;;;;;;;;;;4948944;28;20384;-66
2021/12/22 13:38:30;;;;;;;12.10;5.82;;;;;;;;;;4950994;28;20422;-67
2021/12/22 13:41:17;;;;;;;15.45;6.13;;;;;;;;;;4949077;28;20052;-67
2021/12/22 13:43:48;;;;;;;11.25;5.60;;;;;;;;;;4950030;28;20519;-66
2021/12/22 13:46:18;;;;;;;17.08;6.72;;;;;;;;;;4947728;28;20551;-67
2021/12/22 13:48:56;;;;;;;22.10;8.25;;;;;;;;;;4948540;28;20030;-67
2021/12/22 13:51:47;;;;;;;17.88;7.85;;;;;;;;;;4948651;28;20372;-67
2021/12/22 13:54:22;;;;;;;29.65;11.88;;;;;;;;;;4948611;28;20113;-67
2021/12/22 13:56:49;;;;;;;33.53;12.88;;;;;;;;;;4932733;28;20396;-67
2021/12/22 13:59:16;;;;;;;59.03;19.25;;;;;;;;;;4949833;28;20465;-67
2021/12/22 14:01:46;;;;;;;25.88;10.77;;;;;;;;;;4949981;28;20322;-67
2021/12/22 14:04:39;;;;;;;19.90;9.15;;;;;;;;;;4949820;28;20433;-67
2021/12/22 14:07:04;;;;;;;23.05;9.65;;;;;;;;;;4946467;28;20357;-66
2021/12/22 14:09:30;;;;;;;21.00;8.75;;;;;;;;;;4950884;28;20334;-67
2021/12/22 14:11:58;;;;;;;22.77;8.95;;;;;;;;;;4950368;28;20353;-67
2021/12/22 14:14:42;;;;;;;20.08;8.85;;;;;;;;;;4950798;28;20078;-67
2021/12/22 14:17:09;;;;;;;20.20;7.35;;;;;;;;;;4950082;28;20487;-67
2021/12/22 14:19:36;;;;;;;18.13;7.43;;;;;;;;;;4948706;28;20430;-68
2021/12/22 14:22:22;;;;;;;23.38;8.93;;;;;;;;;;4932142;28;20042;-67
2021/12/22 14:25:19;;;;;;;18.55;8.05;;;;;;;;;;4948490;28;20459;-68
2021/12/22 14:27:48;;;;;;;15.82;6.88;;;;;;;;;;4946376;28;20552;-67
2021/12/22 14:30:29;;;;;;;15.23;6.45;;;;;;;;;;4949777;28;20392;-66
2021/12/22 14:32:59;;;;;;;26.27;9.48;;;;;;;;;;4949302;28;20436;-67
2021/12/22 14:35:26;;;;;;;25.77;10.73;;;;;;;;;;4949367;28;20445;-66
2021/12/22 14:38:16;;;;;;;19.92;7.78;;;;;;;;;;4949235;28;20513;-67
2021/12/22 14:41:00;;;;;;;19.85;9.75;;;;;;;;;;4947949;28;20388;-68
2021/12/22 14:43:34;;;;;;;32.95;12.10;;;;;;;;;;4949484;28;20052;-66
2021/12/22 14:46:00;;;;;;;25.33;10.77;;;;;;;;;;4949108;28;20473;-67
2021/12/22 14:48:30;;;;;;;19.73;7.97;;;;;;;;;;4949844;28;20436;-67
2021/12/22 14:51:07;;;;;;;21.70;8.73;;;;;;;;;;4949578;28;20502;-67
2021/12/22 14:53:46;;;;;;;18.58;7.38;;;;;;;;;;4951254;28;20096;-67
2021/12/22 14:56:24;;;;;;;23.10;10.05;;;;;;;;;;4949209;28;20042;-66
2021/12/22 14:58:55;;;;;;;28.38;10.73;;;;;;;;;;4949434;28;20311;-67
2021/12/22 15:01:22;;;;;;;29.42;12.13;;;;;;;;;;4947857;28;20476;-67